Time;durP1;ratioP1;P1;durP2;ratioP2;P2;SDS_P1;SDS_P2;PMS_P1;PMS_P2;Temp;Humidity;BMP_temperature;BMP_pressure;BME280_temperature;BME280_humidity;BME280_pressure;Samples;Min_cycle;Max_cycle;Signal;HPM_P1;HPM_P2
2022/06/17 00:01:31;;;;;;;1.27;1.10;;;;;;;18.95;70.03;99714.88;4431547;32;33924;-81
2022/06/17 00:04:00;;;;;;;2.47;1.27;;;;;;;19.09;69.37;99708.97;4442236;32;33902;-80
2022/06/17 00:06:34;;;;;;;0.80;0.80;;;;;;;19.11;69.78;99707.97;4438048;32;34512;-80
2022/06/17 00:09:05;;;;;;;2.22;1.40;;;;;;;18.99;69.27;99719.03;4440512;32;34065;-80
2022/06/17 00:11:37;;;;;;;1.25;0.98;;;;;;;19.03;69.88;99710.09;4434751;32;33839;-81
2022/06/17 00:14:11;;;;;;;1.77;1.17;;;;;;;18.96;69.88;99712.16;4446191;32;33896;-81
2022/06/17 00:16:42;;;;;;;1.60;1.15;;;;;;;19.10;69.68;99714.13;4443478;32;34530;-80
2022/06/17 00:19:11;;;;;;;1.70;1.20;;;;;;;19.23;68.57;99713.53;4432201;32;33115;-80
2022/06/17 00:21:43;;;;;;;1.50;1.00;;;;;;;19.25;68.43;99709.91;4432432;32;34682;-80
2022/06/17 00:24:19;;;;;;;2.05;1.15;;;;;;;19.32;68.44;99705.22;4450626;32;33992;-80
2022/06/17 00:26:48;;;;;;;1.58;1.12;;;;;;;19.43;67.68;99712.59;4433626;32;33761;-81
2022/06/17 00:29:19;;;;;;;2.62;1.20;;;;;;;19.24;68.28;99723.16;4439370;32;33155;-80
2022/06/17 00:31:48;;;;;;;2.55;1.40;;;;;;;19.17;68.26;99718.19;4447854;32;35112;-80
2022/06/17 00:34:17;;;;;;;1.65;1.10;;;;;;;19.04;68.67;99709.19;4447462;32;33855;-80
2022/06/17 00:36:46;;;;;;;1.42;1.00;;;;;;;18.92;69.83;99720.28;4452395;32;33639;-80
2022/06/17 00:39:18;;;;;;;2.72;1.50;;;;;;;19.10;69.49;99729.91;4447695;32;33697;-80
2022/06/17 00:41:52;;;;;;;1.55;1.08;;;;;;;19.07;68.94;99732.69;4434091;32;34567;-80
2022/06/17 00:44:27;;;;;;;1.40;1.08;;;;;;;19.03;68.93;99731.12;4436321;32;34825;-81
2022/06/17 00:47:01;;;;;;;2.12;1.45;;;;;;;18.84;69.76;99728.50;4420403;32;33229;-80
2022/06/17 00:49:39;;;;;;;1.87;1.30;;;;;;;18.86;69.39;99712.69;4433143;32;33383;-81
2022/06/17 00:52:19;;;;;;;1.92;1.08;;;;;;;18.99;69.46;99700.62;4435676;32;33526;-80
2022/06/17 00:54:53;;;;;;;1.67;1.20;;;;;;;18.95;70.61;99705.22;4442610;32;34792;-80
2022/06/17 00:57:28;;;;;;;3.08;1.85;;;;;;;18.98;69.37;99709.47;4436802;32;34616;-81
2022/06/17 01:00:13;;;;;;;1.98;1.20;;;;;;;19.22;68.07;99702.19;4431073;32;33406;-81
2022/06/17 01:02:45;;;;;;;1.52;1.10;;;;;;;19.11;68.53;99701.84;4437102;32;33841;-81
2022/06/17 01:05:14;;;;;;;1.95;1.37;;;;;;;19.31;67.09;99706.16;4438212;32;34444;-81
2022/06/17 01:07:48;;;;;;;2.47;1.17;;;;;;;19.18;67.89;99701.50;4441550;32;33627;-80
2022/06/17 01:10:19;;;;;;;2.42;1.35;;;;;;;19.16;67.80;99705.09;4442618;32;33346;-80
2022/06/17 01:12:51;;;;;;;1.25;1.02;;;;;;;19.17;67.76;99699.78;4437848;32;33732;-80
2022/06/17 01:15:22;;;;;;;1.52;1.08;;;;;;;19.00;68.30;99706.78;4435350;32;34039;-80
2022/06/17 01:17:52;;;;;;;2.17;1.08;;;;;;;19.09;67.94;99707.19;4431815;32;33784;-80
2022/06/17 01:20:23;;;;;;;1.77;1.30;;;;;;;19.11;67.44;99705.34;4430865;32;33880;-80
2022/06/17 01:22:55;;;;;;;1.98;1.10;;;;;;;18.96;67.91;99716.56;4421179;32;33084;-81
2022/06/17 01:25:25;;;;;;;1.50;1.20;;;;;;;18.85;68.53;99716.25;4436632;32;33846;-80
2022/06/17 01:27:57;;;;;;;2.60;1.42;;;;;;;18.81;68.72;99715.50;4442430;32;34418;-80
2022/06/17 01:30:28;;;;;;;;;;;;;;;18.92;67.79;99715.03;4439749;32;34061;-80
2022/06/17 01:33:00;;;;;;;2.58;1.27;;;;;;;18.75;68.68;99719.25;4437898;32;34960;-80
2022/06/17 01:35:35;;;;;;;2.80;1.60;;;;;;;18.71;68.80;99722.09;4430970;32;33089;-80
2022/06/17 01:38:06;;;;;;;1.95;1.42;;;;;;;18.52;69.81;99728.19;4436734;32;33557;-80
2022/06/17 01:40:35;;;;;;;1.87;1.30;;;;;;;18.54;69.78;99736.00;4442419;32;33464;-80
2022/06/17 01:43:08;;;;;;;2.58;1.50;;;;;;;18.37;70.03;99733.28;4429375;32;34079;-79
2022/06/17 01:45:41;;;;;;;2.65;1.50;;;;;;;18.42;70.34;99734.78;4434082;32;33930;-80
2022/06/17 01:48:11;;;;;;;2.80;1.70;;;;;;;18.24;70.90;99732.97;4443805;32;34529;-80
2022/06/17 01:50:40;;;;;;;3.35;2.12;;;;;;;18.01;72.10;99736.59;4431676;32;33340;-80
2022/06/17 01:53:12;;;;;;;2.35;1.58;;;;;;;17.98;71.89;99737.59;4447429;32;33709;-80
2022/06/17 01:55:44;;;;;;;2.17;1.50;;;;;;;18.09;71.99;99740.59;4443524;32;34181;-80
2022/06/17 01:58:18;;;;;;;2.28;1.42;;;;;;;18.08;71.73;99753.81;4444831;32;34478;-80
2022/06/17 02:00:47;;;;;;;3.45;2.00;;;;;;;17.94;72.15;99745.66;4431863;32;32955;-80
2022/06/17 02:03:23;;;;;;;3.30;1.90;;;;;;;17.81;72.85;99751.44;4432019;32;33511;-80
2022/06/17 02:05:56;;;;;;;2.90;1.70;;;;;;;17.64;73.75;99748.63;4437627;32;34604;-81
2022/06/17 02:08:26;;;;;;;3.40;1.80;;;;;;;17.60;74.03;99747.03;4440679;32;33891;-80
2022/06/17 02:10:57;;;;;;;3.62;1.90;;;;;;;17.68;73.46;99744.94;4443912;32;33080;-80
2022/06/17 02:13:26;;;;;;;3.58;2.00;;;;;;;17.62;74.31;99745.22;4432692;32;33827;-80
2022/06/17 02:15:55;;;;;;;3.40;1.95;;;;;;;17.74;73.33;99738.59;4432907;32;34955;-80
2022/06/17 02:18:25;;;;;;;3.80;2.47;;;;;;;17.90;72.50;99740.53;4438415;32;33449;-80
2022/06/17 02:20:56;;;;;;;4.35;1.98;;;;;;;17.75;73.17;99748.16;4439158;32;33019;-81
2022/06/17 02:23:29;;;;;;;1.87;1.58;;;;;;;17.60;73.82;99741.78;4445299;32;33579;-80
2022/06/17 02:25:58;;;;;;;2.62;1.85;;;;;;;18.09;71.87;99740.59;4437308;32;34733;-81
2022/06/17 02:28:29;;;;;;;5.03;2.05;;;;;;;17.79;73.39;99745.34;4439341;32;33641;-80
2022/06/17 02:31:00;;;;;;;3.37;1.80;;;;;;;17.94;72.11;99743.88;4435714;32;33396;-80
2022/06/17 02:33:32;;;;;;;3.72;2.00;;;;;;;17.74;72.98;99736.81;4437443;32;34476;-80
2022/06/17 02:36:05;;;;;;;4.43;1.92;;;;;;;17.58;73.79;99744.47;4446971;32;33789;-80
2022/06/17 02:38:36;;;;;;;3.92;2.65;;;;;;;17.66;73.33;99738.91;4433674;32;33319;-80
2022/06/17 02:41:08;;;;;;;3.12;1.95;;;;;;;17.59;73.79;99746.19;4431543;32;34094;-80
2022/06/17 02:43:42;;;;;;;3.62;2.08;;;;;;;17.67;73.37;99745.88;4432291;32;34134;-81
2022/06/17 02:46:14;;;;;;;4.32;2.78;;;;;;;17.70;72.65;99748.34;4439206;32;34070;-81
2022/06/17 02:48:47;;;;;;;3.15;1.73;;;;;;;17.60;73.54;99741.78;4435879;32;33341;-80
2022/06/17 02:51:16;;;;;;;3.80;2.37;;;;;;;17.73;73.17;99748.22;4436247;32;33359;-81
2022/06/17 02:53:47;;;;;;;2.80;1.60;;;;;;;17.59;73.50;99747.94;4441903;32;33805;-81
2022/06/17 02:56:20;;;;;;;2.85;1.85;;;;;;;17.52;73.89;99744.72;4437309;32;34915;-81
2022/06/17 02:58:55;;;;;;;5.22;2.50;;;;;;;17.64;73.19;99751.25;4437212;32;33485;-80
2022/06/17 03:01:26;;;;;;;3.53;1.98;;;;;;;17.56;73.54;99755.94;4432368;32;34037;-80
2022/06/17 03:03:59;;;;;;;4.75;2.10;;;;;;;17.70;72.98;99757.06;4453043;32;33443;-81
2022/06/17 03:06:32;;;;;;;4.18;2.33;;;;;;;17.55;74.01;99756.87;4442951;32;36352;-81
2022/06/17 03:09:16;;;;;;;4.70;2.22;;;;;;;17.67;73.25;99749.34;4446538;32;33398;-81
2022/06/17 03:11:48;;;;;;;3.67;1.95;;;;;;;17.78;72.84;99733.13;4439099;32;34049;-82
2022/06/17 03:14:18;;;;;;;3.15;1.85;;;;;;;17.68;73.01;99735.28;4447631;32;34355;-81
2022/06/17 03:16:47;;;;;;;3.33;1.77;;;;;;;17.85;72.53;99737.25;4437690;32;34632;-81
2022/06/17 03:19:16;;;;;;;5.12;2.10;;;;;;;17.81;72.88;99740.94;4444989;32;33720;-81
2022/06/17 03:21:46;;;;;;;3.83;1.98;;;;;;;17.82;73.38;99740.00;4450474;32;32726;-81
2022/06/17 03:24:23;;;;;;;2.80;2.05;;;;;;;18.00;72.11;99737.50;4441691;32;34535;-81
2022/06/17 03:27:02;;;;;;;2.62;1.70;;;;;;;18.05;72.24;99740.78;4446746;32;34357;-81
2022/06/17 03:29:32;;;;;;;2.87;2.05;;;;;;;18.08;72.40;99748.53;4436402;32;33557;-81
2022/06/17 03:32:03;;;;;;;4.93;2.50;;;;;;;18.01;72.27;99749.72;4445220;32;33400;-81
2022/06/17 03:34:36;;;;;;;4.22;2.42;;;;;;;18.18;71.82;99755.09;4437186;32;34220;-81
2022/06/17 03:37:09;;;;;;;5.87;2.08;;;;;;;18.27;71.52;99748.59;4438933;32;34145;-81
2022/06/17 03:39:41;;;;;;;3.85;2.00;;;;;;;18.09;72.02;99748.47;4448349;32;33996;-81
2022/06/17 03:42:17;;;;;;;4.85;2.22;;;;;;;18.12;72.29;99753.59;4447672;32;33410;-82
2022/06/17 03:44:55;;;;;;;3.00;1.90;;;;;;;18.43;71.01;99754.00;4448301;32;33619;-81
2022/06/17 03:47:30;;;;;;;3.20;2.15;;;;;;;18.51;70.91;99754.53;4452998;32;34697;-82
2022/06/17 03:50:03;;;;;;;3.40;2.08;;;;;;;18.30;72.26;99758.97;4453699;32;33951;-81
2022/06/17 03:52:41;;;;;;;4.70;2.00;;;;;;;18.45;71.16;99762.69;4447717;32;33129;-81
2022/06/17 03:55:17;;;;;;;2.70;1.87;;;;;;;18.37;72.30;99770.06;4447970;32;34691;-81
2022/06/17 03:57:49;;;;;;;6.70;2.05;;;;;;;18.52;71.09;99778.09;4437987;32;34483;-82
2022/06/17 04:00:22;;;;;;;2.50;1.60;;;;;;;18.57;71.68;99783.16;4432578;32;34385;-81
2022/06/17 04:02:52;;;;;;;2.20;1.60;;;;;;;18.67;70.06;99787.06;4435866;32;33284;-81
2022/06/17 04:05:22;;;;;;;3.40;2.05;;;;;;;18.97;69.55;99786.66;4453727;32;33130;-82
2022/06/17 04:07:51;;;;;;;3.87;2.03;;;;;;;18.96;68.80;99783.12;4448858;32;34003;-82
2022/06/17 04:10:24;;;;;;;3.92;1.90;;;;;;;18.84;69.25;99783.72;4441102;32;33895;-81
2022/06/17 04:12:55;;;;;;;3.33;1.87;;;;;;;19.00;69.01;99781.25;4438727;32;32144;-82
2022/06/17 04:15:35;;;;;;;2.72;1.60;;;;;;;18.91;67.09;99785.13;4434971;32;33309;-82
2022/06/17 04:18:04;;;;;;;3.10;1.80;;;;;;;18.87;68.29;99780.09;4441497;32;33853;-81
2022/06/17 04:20:38;;;;;;;2.22;1.60;;;;;;;18.73;68.34;99792.06;4417846;32;34174;-81
2022/06/17 04:23:12;;;;;;;4.37;1.65;;;;;;;18.67;68.52;99799.34;4418151;32;35194;-81
2022/06/17 04:25:45;;;;;;;2.42;1.27;;;;;;;18.72;67.89;99806.09;4417784;32;33977;-82
2022/06/17 04:28:17;;;;;;;1.65;1.45;;;;;;;19.00;67.49;99804.91;4422152;32;32451;-80
2022/06/17 04:30:48;;;;;;;1.92;1.30;;;;;;;19.25;67.18;99801.97;4436475;32;32950;-82
2022/06/17 04:33:23;;;;;;;2.78;1.70;;;;;;;19.44;66.34;99806.38;4445252;32;33570;-82
2022/06/17 04:35:54;;;;;;;1.65;1.35;;;;;;;19.58;66.86;99801.28;4433211;32;33669;-82
2022/06/17 04:38:24;;;;;;;2.95;1.58;;;;;;;19.65;66.09;99794.81;4436108;32;34648;-82
2022/06/17 04:40:57;;;;;;;2.75;1.52;;;;;;;20.29;64.02;99801.28;4440372;32;34405;-82
2022/06/17 04:43:30;;;;;;;1.20;0.95;;;;;;;20.39;62.72;99793.75;4439035;32;33157;-82
2022/06/17 04:46:03;;;;;;;1.95;1.40;;;;;;;20.46;63.19;99792.50;4437619;32;33606;-81
2022/06/17 04:48:32;;;;;;;1.92;1.40;;;;;;;20.58;62.84;99796.28;4446547;32;33848;-82
2022/06/17 04:51:02;;;;;;;2.17;1.50;;;;;;;20.46;63.08;99789.84;4439885;32;34553;-82
2022/06/17 04:53:33;;;;;;;2.95;1.65;;;;;;;20.53;63.04;99785.13;4431342;32;33216;-82
2022/06/17 04:56:06;;;;;;;3.42;1.85;;;;;;;20.57;63.22;99794.59;4430959;32;34290;-81
2022/06/17 04:58:35;;;;;;;2.05;1.40;;;;;;;20.51;63.23;99786.97;4433027;32;33945;-82
2022/06/17 05:01:17;;;;;;;1.33;1.15;;;;;;;20.32;62.67;99787.09;4432258;32;33844;-82
2022/06/17 05:03:47;;;;;;;1.77;1.30;;;;;;;20.24;63.23;99782.22;4442703;32;32863;-82
2022/06/17 05:06:16;;;;;;;2.00;1.00;;;;;;;20.43;62.99;99793.50;4431266;32;34539;-83
2022/06/17 05:08:50;;;;;;;2.42;1.10;;;;;;;20.87;61.04;99797.38;4432156;32;33801;-82
2022/06/17 05:11:25;;;;;;;2.12;1.10;;;;;;;21.09;59.73;99794.41;4435851;32;34513;-81
2022/06/17 05:13:57;;;;;;;2.87;1.15;;;;;;;21.36;59.21;99793.81;4435183;32;33105;-82
2022/06/17 05:16:26;;;;;;;3.22;1.15;;;;;;;21.44;58.90;99799.56;4436429;32;34114;-82
2022/06/17 05:18:55;;;;;;;3.58;1.50;;;;;;;21.25;60.16;99797.06;4438020;32;33630;-82
2022/06/17 05:21:26;;;;;;;2.72;1.17;;;;;;;21.45;59.08;99794.19;4432030;32;34341;-82
2022/06/17 05:23:58;;;;;;;0.88;0.80;;;;;;;21.61;58.05;99798.59;4440768;32;33491;-81
2022/06/17 05:26:29;;;;;;;2.22;1.12;;;;;;;21.98;56.75;99807.03;4430838;32;32853;-82
2022/06/17 05:28:58;;;;;;;3.40;1.50;;;;;;;21.90;56.99;99802.22;4431307;32;33996;-83
2022/06/17 05:31:27;;;;;;;1.67;0.98;;;;;;;22.02;56.53;99795.37;4426133;32;33868;-82
2022/06/17 05:33:56;;;;;;;1.30;1.20;;;;;;;22.17;56.71;99792.63;4434133;32;34061;-82
2022/06/17 05:36:26;;;;;;;2.62;1.52;;;;;;;22.15;55.83;99791.03;4431795;32;33892;-84
2022/06/17 05:38:55;;;;;;;1.20;1.10;;;;;;;22.24;55.66;99792.31;4434720;32;34624;-82
2022/06/17 05:41:24;;;;;;;1.48;1.00;;;;;;;21.93;55.76;99800.22;4435837;32;31877;-82
2022/06/17 05:43:55;;;;;;;1.95;1.35;;;;;;;22.04;57.10;99796.13;4437126;32;33333;-82
2022/06/17 05:46:25;;;;;;;1.70;0.95;;;;;;;22.23;56.16;99801.19;4428338;32;33890;-84
2022/06/17 05:48:55;;;;;;;3.20;1.45;;;;;;;22.13;56.41;99811.41;4429257;32;34092;-83
2022/06/17 05:51:24;;;;;;;2.37;1.20;;;;;;;21.82;56.96;99813.22;4435166;32;33410;-82
2022/06/17 05:53:53;;;;;;;3.22;1.08;;;;;;;21.56;57.67;99817.34;4438325;32;33348;-83
2022/06/17 05:56:26;;;;;;;6.15;1.67;;;;;;;21.62;56.78;99826.69;4442100;32;34495;-84
2022/06/17 05:58:56;;;;;;;3.17;1.10;;;;;;;21.49;57.32;99842.38;4439546;32;34007;-83
2022/06/17 06:01:25;;;;;;;1.65;1.00;;;;;;;21.27;58.50;99833.00;4434777;32;33903;-83
2022/06/17 06:03:55;;;;;;;1.75;0.98;;;;;;;21.30;58.09;99838.09;4430558;32;34377;-84
2022/06/17 06:06:24;;;;;;;2.78;1.52;;;;;;;21.37;57.78;99838.59;4433534;32;33054;-83
2022/06/17 06:08:53;;;;;;;1.70;1.00;;;;;;;21.18;59.13;99841.41;4435355;32;34767;-83
2022/06/17 06:11:22;;;;;;;2.37;1.12;;;;;;;21.45;58.18;99846.13;4442635;32;33721;-83
2022/06/17 06:13:51;;;;;;;1.50;0.95;;;;;;;21.46;57.50;99847.84;4441065;32;33591;-83
2022/06/17 06:16:23;;;;;;;1.55;1.23;;;;;;;21.17;58.67;99847.63;4431514;32;34588;-82
2022/06/17 06:18:53;;;;;;;1.30;0.90;;;;;;;21.36;58.36;99849.22;4430169;32;34192;-84
2022/06/17 06:21:23;;;;;;;2.58;1.33;;;;;;;21.45;58.36;99843.50;4429961;32;33759;-83
2022/06/17 06:23:54;;;;;;;2.15;1.67;;;;;;;21.41;58.32;99844.62;4448442;32;34030;-85
2022/06/17 06:26:24;;;;;;;3.15;2.35;;;;;;;21.45;58.00;99851.41;4447280;32;34264;-83
2022/06/17 06:28:55;;;;;;;1.58;1.15;;;;;;;21.37;58.35;99848.31;4433372;32;34043;-83
2022/06/17 06:31:28;;;;;;;2.22;1.10;;;;;;;21.58;58.55;99860.34;4435398;32;32933;-84
2022/06/17 06:33:57;;;;;;;2.37;1.23;;;;;;;21.57;58.76;99860.44;4441233;32;33982;-82
2022/06/17 06:36:27;;;;;;;1.85;1.20;;;;;;;21.59;58.97;99859.41;4436329;32;33568;-83
2022/06/17 06:38:56;;;;;;;1.65;1.20;;;;;;;21.57;59.84;99869.19;4444830;32;34360;-83
2022/06/17 06:41:26;;;;;;;2.00;1.27;;;;;;;21.64;58.10;99867.06;4441248;32;33304;-83
2022/06/17 06:43:56;;;;;;;2.05;1.10;;;;;;;21.44;59.24;99861.13;4445321;32;33675;-83
2022/06/17 06:46:32;;;;;;;1.95;1.20;;;;;;;21.55;57.81;99865.78;4440690;32;33140;-83
2022/06/17 06:49:08;;;;;;;2.45;1.35;;;;;;;21.42;59.61;99862.97;4439297;32;34828;-83
2022/06/17 06:51:36;;;;;;;1.10;1.00;;;;;;;21.37;59.56;99872.91;4437467;32;33649;-84
2022/06/17 06:54:05;;;;;;;4.37;1.48;;;;;;;21.79;59.11;99871.47;4445090;32;33660;-83
2022/06/17 06:56:34;;;;;;;2.00;1.20;;;;;;;21.71;58.94;99864.00;4442993;32;34461;-83
2022/06/17 06:59:03;;;;;;;2.62;1.35;;;;;;;21.74;57.93;99871.72;4445753;32;33966;-83
2022/06/17 07:01:35;;;;;;;;;;;;;;;21.91;57.51;99869.94;4443065;32;33809;-83
2022/06/17 07:04:04;;;;;;;2.55;1.45;;;;;;;21.78;57.83;99863.66;4436555;32;33611;-83
2022/06/17 07:06:35;;;;;;;2.78;1.33;;;;;;;21.87;57.98;99871.91;4447456;32;33761;-84
2022/06/17 07:09:04;;;;;;;2.50;1.30;;;;;;;21.93;58.12;99868.91;4445412;32;34837;-84
2022/06/17 07:11:33;;;;;;;1.30;1.02;;;;;;;22.10;56.87;99875.84;4444802;32;34066;-84
2022/06/17 07:14:02;;;;;;;2.00;1.00;;;;;;;22.28;56.73;99876.63;4446057;32;34100;-83
2022/06/17 07:16:31;;;;;;;1.62;1.20;;;;;;;22.27;55.50;99882.00;4442320;32;33352;-83
2022/06/17 07:19:03;;;;;;;1.87;1.00;;;;;;;22.60;55.35;99873.84;4446371;32;33736;-84
2022/06/17 07:21:32;;;;;;;1.45;1.00;;;;;;;22.75;55.22;99882.66;4448146;32;34097;-84
2022/06/17 07:24:07;;;;;;;3.37;1.40;;;;;;;22.65;55.56;99886.81;4439456;32;32865;-83
2022/06/17 07:26:36;;;;;;;2.33;1.45;;;;;;;22.93;54.99;99888.59;4433007;32;33170;-83
2022/06/17 07:29:05;;;;;;;2.33;1.27;;;;;;;22.98;55.55;99890.06;4440288;32;33480;-83
2022/06/17 07:31:34;;;;;;;2.28;1.10;;;;;;;22.87;53.67;99894.28;4444574;32;32544;-85
2022/06/17 07:34:06;;;;;;;2.35;1.08;;;;;;;23.23;53.72;99893.00;4445321;32;32992;-83
2022/06/17 07:42:09;;;;;;;2.35;1.33;;;;;;;23.37;53.17;99890.34;4440174;32;34723;-84
2022/06/17 07:44:39;;;;;;;2.30;1.30;;;;;;;23.34;53.95;99899.31;4440067;32;33014;-84
2022/06/17 07:47:18;;;;;;;2.30;1.30;;;;;;;23.51;53.84;99902.69;4440141;32;32574;-84
2022/06/17 07:49:48;;;;;;;2.67;1.27;;;;;;;23.74;52.90;99894.16;4442290;32;33639;-84
2022/06/17 07:52:17;;;;;;;3.20;1.37;;;;;;;23.74;52.67;99886.19;4444223;32;33418;-84
2022/06/17 07:54:46;;;;;;;1.55;1.05;;;;;;;23.71;52.31;99894.31;4435235;32;34355;-84
2022/06/17 07:57:16;;;;;;;1.90;1.25;;;;;;;23.71;53.39;99898.78;4434271;32;34266;-84
2022/06/17 07:59:45;;;;;;;1.60;1.20;;;;;;;23.53;53.73;99893.69;4418860;32;30869;-84
2022/06/17 08:02:14;;;;;;;2.03;1.12;;;;;;;23.52;53.75;99899.09;4434826;32;35057;-84
2022/06/17 08:04:43;;;;;;;2.05;1.10;;;;;;;23.95;52.78;99897.22;4436648;32;32904;-84
2022/06/17 08:07:14;;;;;;;2.35;1.30;;;;;;;24.19;51.98;99904.50;4443559;32;34514;-84
2022/06/17 08:09:43;;;;;;;1.53;1.20;;;;;;;24.24;52.48;99897.09;4445519;32;32716;-84
2022/06/17 08:12:13;;;;;;;2.28;1.20;;;;;;;24.46;51.47;99899.19;4441194;32;34436;-84
2022/06/17 08:14:49;;;;;;;2.15;1.15;;;;;;;24.37;51.36;99897.13;4445106;32;34075;-84
2022/06/17 08:17:18;;;;;;;10.93;1.30;;;;;;;24.52;51.36;99903.22;4447291;32;33443;-84
2022/06/17 08:19:48;;;;;;;1.12;1.00;;;;;;;24.37;50.93;99897.13;4445168;32;34008;-84
2022/06/17 08:22:18;;;;;;;4.03;1.50;;;;;;;24.57;50.10;99901.94;4444322;32;32984;-84
2022/06/17 08:24:47;;;;;;;3.90;1.60;;;;;;;24.72;50.10;99899.19;4447011;32;33470;-84
2022/06/17 08:27:16;;;;;;;1.65;1.15;;;;;;;24.93;51.83;99905.66;4445127;32;33509;-84
2022/06/17 08:29:45;;;;;;;1.87;1.12;;;;;;;24.87;50.04;99895.50;4450518;32;34851;-84
2022/06/17 08:35:05;;;;;;;2.20;1.20;;;;;;;25.16;50.20;99900.59;4444795;32;33368;-85
2022/06/17 08:37:35;;;;;;;2.35;1.08;;;;;;;25.25;50.39;99900.81;4444971;32;33042;-84
2022/06/17 08:40:10;;;;;;;2.85;1.33;;;;;;;25.56;49.52;99898.59;4445548;32;33985;-85
2022/06/17 08:42:49;;;;;;;2.62;1.73;;;;;;;25.77;49.07;99904.16;4444978;32;33797;-85
2022/06/17 08:45:22;;;;;;;3.53;1.75;;;;;;;25.79;41.21;99902.25;4450813;32;32934;-84
2022/06/17 08:48:03;;;;;;;1.62;1.20;;;;;;;25.74;38.80;99896.44;4445229;32;33412;-86
2022/06/17 08:50:42;;;;;;;1.25;0.88;;;;;;;25.98;37.79;99903.59;4443662;32;34872;-85
2022/06/17 08:53:30;;;;;;;1.08;0.82;;;;;;;26.12;37.14;99906.03;4443290;32;33678;-84
2022/06/17 08:56:11;;;;;;;1.27;1.08;;;;;;;26.29;37.66;99897.69;4444982;32;33643;-85
2022/06/17 08:58:48;;;;;;;3.30;1.20;;;;;;;26.43;38.10;99904.59;4445207;32;34210;-85
2022/06/17 09:01:23;;;;;;;2.10;1.12;;;;;;;26.35;37.57;99913.16;4444306;32;33712;-84
2022/06/17 09:04:11;;;;;;;4.68;1.25;;;;;;;26.72;41.39;99912.19;4448937;32;33763;-84
2022/06/17 09:06:49;;;;;;;2.10;1.17;;;;;;;26.70;42.68;99911.47;4449502;32;33543;-84
2022/06/17 09:09:43;;;;;;;1.85;0.90;;;;;;;26.79;39.87;99910.75;4442732;32;34162;-85
2022/06/17 09:12:17;;;;;;;2.22;1.27;;;;;;;26.20;41.94;99913.47;4443122;32;33612;-84
2022/06/17 09:14:59;;;;;;;1.87;1.10;;;;;;;26.38;43.14;99910.25;4445033;32;33452;-84
2022/06/17 09:17:32;;;;;;;2.37;1.20;;;;;;;26.49;42.03;99908.63;4443916;32;33009;-84
2022/06/17 09:20:08;;;;;;;1.27;0.82;;;;;;;26.80;38.51;99923.97;4444983;32;34579;-84
2022/06/17 09:22:40;;;;;;;1.87;1.00;;;;;;;26.97;36.46;99922.66;4444107;32;33244;-85
2022/06/17 09:25:12;;;;;;;1.80;0.90;;;;;;;26.97;35.51;99924.47;4449892;32;33745;-85
2022/06/17 09:27:43;;;;;;;1.70;0.82;;;;;;;27.09;34.83;99926.19;4444869;32;33164;-85
2022/06/17 09:30:15;;;;;;;1.65;1.15;;;;;;;27.16;35.17;99923.84;4442431;32;34474;-86
2022/06/17 09:32:47;;;;;;;1.00;0.90;;;;;;;26.75;35.58;99925.28;4436423;32;236657;-85
2022/06/17 09:35:27;;;;;;;2.17;0.98;;;;;;;26.99;36.32;99926.03;4444271;32;33654;-85
2022/06/17 09:37:58;;;;;;;1.23;1.02;;;;;;;26.99;34.09;99930.50;4441629;32;32793;-85
2022/06/17 09:40:34;;;;;;;1.25;0.88;;;;;;;27.40;33.65;99935.28;4446493;32;34511;-84
2022/06/17 09:43:07;;;;;;;2.08;1.10;;;;;;;27.34;33.22;99933.09;4443969;32;33971;-85
2022/06/17 09:45:42;;;;;;;1.75;0.90;;;;;;;27.33;34.23;99925.22;4444665;32;34172;-85
2022/06/17 09:48:17;;;;;;;1.98;1.08;;;;;;;27.35;34.67;99937.47;4444430;32;33124;-85
2022/06/17 09:50:50;;;;;;;1.30;1.08;;;;;;;27.13;33.57;99940.94;4444026;32;34326;-85
2022/06/17 09:53:22;;;;;;;1.52;0.90;;;;;;;27.25;38.60;99947.13;4441051;32;34379;-83
2022/06/17 09:55:55;;;;;;;1.58;0.98;;;;;;;27.15;38.91;99957.63;4450288;32;34287;-85
2022/06/17 09:58:29;;;;;;;2.28;1.20;;;;;;;26.86;40.78;99948.41;4444300;32;33329;-85
2022/06/17 10:00:58;;;;;;;1.48;1.02;;;;;;;26.81;38.78;99946.94;4444298;32;34640;-85
2022/06/17 10:03:30;;;;;;;1.40;0.75;;;;;;;26.89;40.59;99961.47;4443876;32;34344;-85
2022/06/17 10:06:07;;;;;;;1.62;0.90;;;;;;;26.74;41.71;99960.84;4444241;32;34581;-85
2022/06/17 10:08:46;;;;;;;2.42;1.17;;;;;;;26.88;40.04;99962.44;4444249;32;32950;-85
2022/06/17 10:11:20;;;;;;;2.08;1.00;;;;;;;27.08;39.41;99967.06;4449425;32;34596;-84
2022/06/17 10:13:59;;;;;;;1.52;1.00;;;;;;;27.18;39.69;99970.75;4442135;32;34206;-85
2022/06/17 10:19:41;;;;;;;1.60;1.08;;;;;;;26.71;40.60;99969.06;4397572;32;33593;-85
2022/06/17 10:22:24;;;;;;;1.08;0.95;;;;;;;26.88;41.76;99978.44;4397286;32;34486;-85
2022/06/17 10:25:00;;;;;;;2.35;1.10;;;;;;;27.32;40.46;99971.50;4396488;32;34048;-84
2022/06/17 10:27:52;;;;;;;1.95;1.00;;;;;;;27.38;37.88;99974.53;4395913;32;34464;-85
2022/06/17 10:30:36;;;;;;;1.55;1.05;;;;;;;27.51;39.24;99970.87;4397127;32;33062;-85
2022/06/17 10:33:05;;;;;;;2.37;1.23;;;;;;;27.04;39.99;99973.62;4397587;32;33627;-86
2022/06/17 10:35:35;;;;;;;0.93;0.80;;;;;;;27.17;38.67;99977.00;4403158;32;34514;-85
2022/06/17 10:38:06;;;;;;;2.35;1.25;;;;;;;27.63;37.09;99970.75;4395336;32;33758;-85
2022/06/17 10:40:38;;;;;;;1.27;1.00;;;;;;;27.76;37.67;99980.41;4394924;32;33102;-84
2022/06/17 10:43:14;;;;;;;1.60;1.20;;;;;;;27.79;37.33;99983.69;4391786;32;33747;-85
2022/06/17 10:45:43;;;;;;;3.00;1.25;;;;;;;27.63;37.05;99976.06;4390458;32;34746;-85
2022/06/17 10:48:19;;;;;;;2.35;1.23;;;;;;;27.96;36.75;99974.38;4401288;32;33271;-84
2022/06/17 10:50:48;;;;;;;1.35;1.10;;;;;;;28.01;35.88;99977.50;4394313;32;34146;-84
2022/06/17 10:53:21;;;;;;;1.20;0.98;;;;;;;27.37;36.12;99986.13;4405250;32;33849;-85
2022/06/17 10:55:52;;;;;;;2.12;1.20;;;;;;;27.92;34.92;99980.91;4429410;32;33650;-84
2022/06/17 10:58:25;;;;;;;2.62;1.42;;;;;;;28.26;33.45;99978.16;4430276;32;33844;-86
2022/06/17 11:00:57;;;;;;;2.08;1.42;;;;;;;28.11;33.57;99968.75;4428214;32;34058;-85
2022/06/17 11:03:30;;;;;;;1.05;0.90;;;;;;;28.13;35.69;99974.81;4428164;32;34433;-86
2022/06/17 11:06:07;;;;;;;8.82;1.33;;;;;;;28.26;33.85;99972.81;4429477;32;33178;-84
2022/06/17 11:08:39;;;;;;;0.93;0.77;;;;;;;28.11;30.37;99985.59;4426552;32;33914;-85
2022/06/17 11:14:00;;;;;;;2.07;1.30;;;;;;;28.17;31.15;99984.25;4427721;32;35441;-85
2022/06/17 11:16:37;;;;;;;;;;;;;;;28.22;32.19;99977.56;4429457;32;33878;-86
2022/06/17 11:19:11;;;;;;;1.98;1.00;;;;;;;28.55;33.34;99972.25;4436247;32;34221;-84
2022/06/17 11:21:44;;;;;;;2.35;1.08;;;;;;;28.62;33.56;99984.09;4430426;32;33853;-84
2022/06/17 11:24:21;;;;;;;1.25;0.93;;;;;;;28.19;33.34;99982.31;4427108;32;33993;-85
2022/06/17 11:27:02;;;;;;;1.85;1.12;;;;;;;28.19;32.36;99982.31;4425431;32;33415;-84
2022/06/17 11:29:40;;;;;;;1.67;1.10;;;;;;;28.23;31.02;99976.59;4426454;32;33804;-84
2022/06/17 11:32:31;;;;;;;2.83;1.42;;;;;;;27.68;32.59;99978.37;4428774;32;34063;-85
2022/06/17 11:35:02;;;;;;;1.50;1.10;;;;;;;27.75;34.49;99978.75;4435499;32;34357;-86
2022/06/17 11:37:34;;;;;;;2.15;1.25;;;;;;;27.81;35.49;99983.56;4452658;32;34322;-85
2022/06/17 11:40:12;;;;;;;2.17;1.37;;;;;;;27.39;36.69;99986.03;4448016;32;33643;-86
2022/06/17 11:42:47;;;;;;;2.03;1.12;;;;;;;27.57;36.12;99981.91;4448444;32;33719;-85
2022/06/17 11:45:19;;;;;;;1.80;1.42;;;;;;;27.12;36.99;99981.84;4444081;32;33763;-85
2022/06/17 11:47:52;;;;;;;2.25;1.27;;;;;;;27.35;35.81;99990.75;4446793;32;34792;-84
2022/06/17 11:50:24;;;;;;;1.77;1.40;;;;;;;27.26;35.65;99983.47;4445144;32;34215;-86
2022/06/17 11:53:01;;;;;;;3.80;1.25;;;;;;;27.22;36.18;99987.34;4449261;32;33811;-86
2022/06/17 11:55:31;;;;;;;1.62;1.08;;;;;;;27.15;36.78;99983.44;4441651;32;32542;-85
2022/06/17 11:58:21;;;;;;;2.03;1.20;;;;;;;27.34;36.62;99974.88;4436938;32;33778;-85
2022/06/17 12:00:53;;;;;;;2.15;1.20;;;;;;;27.11;36.74;99974.84;4434174;32;34812;-85
2022/06/17 12:03:40;;;;;;;3.03;1.70;;;;;;;27.19;34.85;99963.63;4437561;32;33147;-85
2022/06/17 12:06:21;;;;;;;2.10;1.15;;;;;;;27.32;35.20;99959.00;4440696;32;32543;-85
2022/06/17 12:08:55;;;;;;;3.33;1.50;;;;;;;27.42;33.29;99956.47;4438291;32;33830;-86
2022/06/17 12:11:41;;;;;;;2.97;1.20;;;;;;;27.58;34.08;99967.59;4436996;32;34583;-85
2022/06/17 12:14:15;;;;;;;3.72;1.40;;;;;;;27.91;33.22;99944.56;4436481;32;33459;-86